createdAt,value
2022-12-31T00:01:44.823Z,100085.65
2022-12-31T00:04:13.670Z,100087.59
2022-12-31T00:06:43.747Z,100094.3
2022-12-31T00:11:44.105Z,100093.39
2022-12-31T00:14:14.287Z,100085.82
2022-12-31T00:16:43.703Z,100082.06
2022-12-31T00:19:13.951Z,100083.93
2022-12-31T00:21:44.030Z,100077.34
2022-12-31T00:24:13.867Z,100086.73999999999
2022-12-31T00:26:43.885Z,100095.2
2022-12-31T00:29:13.655Z,100095.79
2022-12-31T00:31:43.698Z,100093.53
2022-12-31T00:34:13.839Z,100092.86
2022-12-31T00:36:45.816Z,100099.01999999999
2022-12-31T00:39:13.877Z,100108.81000000001
2022-12-31T00:41:43.841Z,100103.14
2022-12-31T00:44:14.029Z,100096.12
2022-12-31T00:49:14.280Z,100091.3
2022-12-31T00:51:45.581Z,100094.65
2022-12-31T00:54:14.046Z,100101.29
2022-12-31T00:56:43.963Z,100090.74
2022-12-31T00:59:13.665Z,100094.87000000001
2022-12-31T01:01:43.892Z,100097.58
2022-12-31T01:06:44.904Z,100096.25
2022-12-31T01:09:15.792Z,100095.45000000001
2022-12-31T01:11:44.164Z,100093.73000000001
2022-12-31T01:14:17.081Z,100102.06
2022-12-31T01:16:46.611Z,100102.64
2022-12-31T01:19:16.080Z,100103.66
2022-12-31T01:21:44.874Z,100105.86
2022-12-31T01:24:14.251Z,100111.0
2022-12-31T01:26:44.385Z,100112.19
2022-12-31T01:29:15.890Z,100111.58
2022-12-31T01:34:13.949Z,100119.15000000001
2022-12-31T01:36:43.928Z,100122.34999999999
2022-12-31T01:39:13.728Z,100120.08
2022-12-31T01:41:45.977Z,100120.28
2022-12-31T01:44:33.755Z,100121.53
2022-12-31T01:46:46.765Z,100125.34000000001
2022-12-31T01:49:19.466Z,100125.27
2022-12-31T01:51:48.554Z,100126.07
2022-12-31T01:54:17.339Z,100125.27
2022-12-31T01:56:46.373Z,100123.33
2022-12-31T01:59:16.677Z,100127.33
2022-12-31T02:01:47.149Z,100138.06
2022-12-31T02:04:15.407Z,100143.04
2022-12-31T02:06:49.823Z,100136.61
2022-12-31T02:09:15.055Z,100130.87000000001
2022-12-31T02:11:43.764Z,100119.56
2022-12-31T02:14:16.394Z,100124.44
2022-12-31T02:16:54.412Z,100131.6
2022-12-31T02:19:33.769Z,100124.87999999999
2022-12-31T02:21:54.808Z,100127.77
2022-12-31T02:24:31.382Z,100131.37000000001
2022-12-31T02:26:55.034Z,100124.59
2022-12-31T02:29:33.477Z,100127.0
2022-12-31T02:34:19.826Z,100127.72
2022-12-31T02:36:47.075Z,100127.75
2022-12-31T02:41:50.339Z,100127.33
2022-12-31T02:44:23.357Z,100120.19
2022-12-31T02:46:51.462Z,100125.36
2022-12-31T02:51:53.497Z,100115.95
2022-12-31T02:54:26.258Z,100112.86
2022-12-31T02:56:52.889Z,100115.45
2022-12-31T02:59:31.874Z,100116.27
2022-12-31T03:01:59.904Z,100115.37
2022-12-31T03:06:44.806Z,100121.88
2022-12-31T03:09:13.740Z,100115.06000000001
2022-12-31T03:11:53.677Z,100115.09
2022-12-31T03:16:43.723Z,100117.76999999999
2022-12-31T03:19:23.665Z,100111.5
2022-12-31T03:21:53.583Z,100104.64
2022-12-31T03:24:23.614Z,100109.63
2022-12-31T03:26:43.714Z,100106.47
2022-12-31T03:29:13.826Z,100110.70999999999
2022-12-31T03:31:43.760Z,100116.94
2022-12-31T03:34:14.819Z,100112.36
2022-12-31T03:36:43.742Z,100116.27
2022-12-31T03:39:13.732Z,100117.62999999999
2022-12-31T03:44:13.783Z,100114.81
2022-12-31T03:46:43.764Z,100112.97
2022-12-31T03:49:14.042Z,100114.4
2022-12-31T03:51:43.896Z,100117.97
2022-12-31T03:54:13.751Z,100117.33
2022-12-31T03:56:44.070Z,100111.17
2022-12-31T03:59:13.824Z,100108.96
2022-12-31T04:01:44.005Z,100114.45
2022-12-31T04:04:13.919Z,100125.61
2022-12-31T04:09:13.846Z,100112.69
2022-12-31T04:11:43.765Z,100112.23
2022-12-31T04:14:16.139Z,100117.97
2022-12-31T04:16:44.280Z,100117.69
2022-12-31T04:19:13.741Z,100116.85
2022-12-31T04:24:14.378Z,100116.93000000001
2022-12-31T04:26:43.862Z,100119.5
2022-12-31T04:29:13.801Z,100119.37000000001
2022-12-31T04:34:14.061Z,100121.79
2022-12-31T04:36:43.787Z,100118.02
2022-12-31T04:39:14.729Z,100114.70000000001
2022-12-31T04:41:43.784Z,100113.79
2022-12-31T04:44:14.265Z,100114.78
2022-12-31T04:46:43.937Z,100122.74
2022-12-31T04:49:13.946Z,100125.95
2022-12-31T04:51:44.116Z,100126.95
2022-12-31T04:56:43.860Z,100131.3
2022-12-31T04:59:13.862Z,100128.94
2022-12-31T05:01:44.064Z,100119.36
2022-12-31T05:04:13.989Z,100111.65999999999
2022-12-31T05:09:14.051Z,100107.0
2022-12-31T05:11:43.807Z,100110.47
2022-12-31T05:14:13.946Z,100108.64
2022-12-31T05:16:44.022Z,100102.51
2022-12-31T05:19:13.776Z,100106.64
2022-12-31T05:21:53.737Z,100111.1
2022-12-31T05:24:13.804Z,100113.59
2022-12-31T05:26:43.759Z,100124.77
2022-12-31T05:29:14.176Z,100127.35
2022-12-31T05:31:43.742Z,100130.02
2022-12-31T05:34:13.793Z,100138.16
2022-12-31T05:36:45.030Z,100150.55
2022-12-31T05:39:13.887Z,100156.59000000001
2022-12-31T05:41:44.133Z,100156.56
2022-12-31T05:44:14.014Z,100161.33
2022-12-31T05:46:43.841Z,100164.29000000001
2022-12-31T05:49:14.146Z,100159.15
2022-12-31T05:51:43.784Z,100160.94
2022-12-31T05:54:14.246Z,100158.56
2022-12-31T05:56:43.833Z,100159.47
2022-12-31T05:59:13.805Z,100156.59000000001
2022-12-31T06:01:43.884Z,100164.61
2022-12-31T06:04:13.786Z,100167.95
2022-12-31T06:06:44.269Z,100160.86
2022-12-31T06:09:14.253Z,100162.0
2022-12-31T06:11:44.595Z,100154.90999999999
2022-12-31T06:14:14.266Z,100154.92
2022-12-31T06:16:43.788Z,100162.48000000001
2022-12-31T06:19:14.413Z,100162.2
2022-12-31T06:21:43.822Z,100160.58
2022-12-31T06:24:13.953Z,100155.2
2022-12-31T06:26:43.842Z,100158.31
2022-12-31T06:29:13.920Z,100160.15
2022-12-31T06:31:44.010Z,100153.75
2022-12-31T06:34:14.558Z,100150.01999999999
2022-12-31T06:36:43.782Z,100153.66
2022-12-31T06:39:14.269Z,100151.59
2022-12-31T06:41:43.780Z,100146.17
2022-12-31T06:44:14.499Z,100146.98
2022-12-31T06:46:43.839Z,100147.26000000001
2022-12-31T06:49:13.982Z,100158.23000000001
2022-12-31T06:51:45.144Z,100159.45
2022-12-31T06:54:13.865Z,100160.38
2022-12-31T06:56:44.602Z,100154.85
2022-12-31T06:59:23.651Z,100146.19
2022-12-31T07:01:50.369Z,100141.14
2022-12-31T07:04:33.635Z,100131.28
2022-12-31T07:06:50.920Z,100132.34
2022-12-31T07:09:21.427Z,100132.62
2022-12-31T07:11:56.383Z,100140.81
2022-12-31T07:14:28.755Z,100142.56
2022-12-31T07:16:52.457Z,100150.09
2022-12-31T07:19:26.461Z,100148.8
2022-12-31T07:24:15.204Z,100130.31999999999
2022-12-31T07:26:56.959Z,100135.41
2022-12-31T07:31:54.442Z,100155.17
2022-12-31T07:34:21.730Z,100118.47
2022-12-31T07:36:55.082Z,100111.58
2022-12-31T07:41:53.787Z,100119.1
2022-12-31T07:44:28.696Z,100156.16
2022-12-31T07:46:53.410Z,100149.98000000001
2022-12-31T07:49:15.042Z,100138.87
2022-12-31T07:51:44.194Z,100130.35
2022-12-31T07:54:14.548Z,100119.48
2022-12-31T07:56:44.941Z,100115.62
2022-12-31T07:59:30.827Z,100104.37
2022-12-31T08:01:49.151Z,100098.27
2022-12-31T08:04:26.100Z,100103.43000000001
2022-12-31T08:06:52.924Z,100105.02
2022-12-31T08:09:29.194Z,100106.1
2022-12-31T08:11:51.252Z,100100.64
2022-12-31T08:14:14.598Z,100098.69
2022-12-31T08:16:44.597Z,100093.31
2022-12-31T08:19:24.368Z,100099.77
2022-12-31T08:21:55.005Z,100093.48999999999
2022-12-31T08:24:22.285Z,100093.62
2022-12-31T08:26:56.344Z,100098.6
2022-12-31T08:29:29.644Z,100099.34
2022-12-31T08:31:52.498Z,100096.56
2022-12-31T08:34:22.154Z,100119.22
2022-12-31T08:36:51.296Z,100118.09
2022-12-31T08:39:24.232Z,100095.84
2022-12-31T08:41:46.761Z,100116.72
2022-12-31T08:44:25.978Z,100099.87
2022-12-31T08:46:53.452Z,100108.34
2022-12-31T08:49:14.192Z,100116.89
2022-12-31T08:51:44.902Z,100107.14
2022-12-31T08:54:14.070Z,100120.58
2022-12-31T08:56:56.439Z,100105.42
2022-12-31T08:59:28.499Z,100106.2
2022-12-31T09:01:59.904Z,100115.73
2022-12-31T09:04:24.738Z,100116.3
2022-12-31T09:06:54.578Z,100116.33
2022-12-31T09:09:27.010Z,100118.74
2022-12-31T09:11:53.637Z,100105.90999999999
2022-12-31T09:14:29.887Z,100112.81999999999
2022-12-31T09:16:52.473Z,100103.59999999999
2022-12-31T09:19:13.970Z,100111.33
2022-12-31T09:21:44.422Z,100108.37
2022-12-31T09:24:15.256Z,100120.78
2022-12-31T09:29:26.060Z,100132.7
2022-12-31T09:34:22.847Z,100146.98
2022-12-31T09:36:49.723Z,100153.06
2022-12-31T09:39:21.309Z,100148.96
2022-12-31T09:42:03.823Z,100147.70999999999
2022-12-31T09:44:33.645Z,100172.08
2022-12-31T09:47:03.701Z,100154.78
2022-12-31T09:49:33.828Z,100162.37
2022-12-31T09:51:56.716Z,100158.39
2022-12-31T09:54:28.186Z,100155.3
2022-12-31T09:56:55.501Z,100168.5
2022-12-31T09:59:22.519Z,100164.37
2022-12-31T10:01:52.993Z,100170.84
2022-12-31T10:04:33.905Z,100181.73000000001
2022-12-31T10:06:58.569Z,100142.43000000001
2022-12-31T10:09:31.950Z,100173.33
2022-12-31T10:12:01.857Z,100165.39
2022-12-31T10:14:29.727Z,100167.04999999999
2022-12-31T10:16:58.194Z,100179.6
2022-12-31T10:19:32.344Z,100203.28
2022-12-31T10:21:58.049Z,100195.22
2022-12-31T10:24:33.135Z,100184.83
2022-12-31T10:29:24.837Z,100180.81
2022-12-31T10:31:55.800Z,100196.45000000001
2022-12-31T10:34:16.293Z,100200.0
2022-12-31T10:36:52.908Z,100204.39
2022-12-31T10:39:27.255Z,100184.37
2022-12-31T10:42:01.272Z,100187.8
2022-12-31T10:44:33.690Z,100180.79000000001
2022-12-31T10:49:33.744Z,100174.73
2022-12-31T10:52:03.667Z,100188.34000000001
2022-12-31T10:54:33.666Z,100202.15
2022-12-31T10:57:06.417Z,100182.29
2022-12-31T10:59:33.709Z,100179.49
2022-12-31T11:01:48.727Z,100197.06999999999
2022-12-31T11:04:33.956Z,100182.86
2022-12-31T11:07:03.695Z,100184.69
2022-12-31T11:09:34.814Z,100182.26
2022-12-31T11:11:53.123Z,100183.89
2022-12-31T11:14:33.699Z,100197.34
2022-12-31T11:16:56.447Z,100185.51999999999
2022-12-31T11:21:56.669Z,100201.83
2022-12-31T11:24:28.556Z,100203.61
2022-12-31T11:27:03.243Z,100202.31
2022-12-31T11:29:29.017Z,100203.01
2022-12-31T11:32:00.102Z,100198.41
2022-12-31T11:34:33.820Z,100194.42
2022-12-31T11:36:57.858Z,100205.54
2022-12-31T11:39:31.955Z,100211.51999999999
2022-12-31T11:41:51.325Z,100212.15999999999
2022-12-31T11:44:22.880Z,100215.78
2022-12-31T11:46:57.720Z,100220.61
2022-12-31T11:49:29.960Z,100212.48000000001
2022-12-31T11:52:01.381Z,100205.5
2022-12-31T11:54:33.293Z,100197.03
2022-12-31T11:56:50.229Z,100194.58
2022-12-31T11:59:18.907Z,100217.75
2022-12-31T12:01:52.780Z,100203.44
2022-12-31T12:04:14.070Z,100210.74
2022-12-31T12:06:45.349Z,100213.22
2022-12-31T12:09:25.716Z,100217.02
2022-12-31T12:11:43.959Z,100214.62
2022-12-31T12:14:20.323Z,100220.51
2022-12-31T12:16:44.115Z,100201.08
2022-12-31T12:21:46.075Z,100213.01
2022-12-31T12:24:20.320Z,100205.47
2022-12-31T12:26:44.510Z,100218.39
2022-12-31T12:29:18.165Z,100207.79
2022-12-31T12:31:54.482Z,100205.94
2022-12-31T12:34:23.447Z,100224.37999999999
2022-12-31T12:36:46.106Z,100246.94
2022-12-31T12:39:19.747Z,100219.59000000001
2022-12-31T12:41:44.197Z,100224.49
2022-12-31T12:44:16.025Z,100225.9
2022-12-31T12:46:48.468Z,100211.28
2022-12-31T12:52:02.416Z,100229.88
2022-12-31T12:54:27.770Z,100231.8
2022-12-31T12:56:51.584Z,100233.61
2022-12-31T12:59:33.789Z,100240.74
2022-12-31T13:01:49.203Z,100248.61
2022-12-31T13:04:34.001Z,100250.05
2022-12-31T13:06:58.076Z,100249.06999999999
2022-12-31T13:09:27.834Z,100259.28
2022-12-31T13:11:58.980Z,100274.57
2022-12-31T13:14:27.309Z,100288.94
2022-12-31T13:16:53.671Z,100265.14
2022-12-31T13:19:21.661Z,100277.81
2022-12-31T13:21:53.466Z,100276.97
2022-12-31T13:24:24.620Z,100270.43
2022-12-31T13:26:48.188Z,100278.41
2022-12-31T13:29:20.137Z,100274.57
2022-12-31T13:31:46.449Z,100277.91
2022-12-31T13:34:20.049Z,100264.45
2022-12-31T13:36:47.855Z,100270.15
2022-12-31T13:39:19.579Z,100282.98
2022-12-31T13:41:49.250Z,100287.36
2022-12-31T13:44:22.824Z,100275.62000000001
2022-12-31T13:46:47.986Z,100284.61
2022-12-31T13:49:18.515Z,100277.5
2022-12-31T13:51:46.957Z,100300.3
2022-12-31T13:54:28.221Z,100283.28
2022-12-31T13:56:45.326Z,100293.47
2022-12-31T13:59:18.151Z,100276.33
2022-12-31T14:01:51.906Z,100271.01
2022-12-31T14:04:17.589Z,100277.95
2022-12-31T14:06:50.914Z,100288.44
2022-12-31T14:09:21.778Z,100284.83
2022-12-31T14:11:58.713Z,100282.98
2022-12-31T14:14:24.953Z,100285.28
2022-12-31T14:16:52.458Z,100275.81
2022-12-31T14:19:31.142Z,100285.6
2022-12-31T14:21:51.658Z,100291.90999999999
2022-12-31T14:24:26.539Z,100289.69
2022-12-31T14:26:48.262Z,100305.8
2022-12-31T14:29:29.562Z,100296.53
2022-12-31T14:32:00.488Z,100313.62000000001
2022-12-31T14:34:24.764Z,100301.47
2022-12-31T14:36:56.169Z,100314.23
2022-12-31T14:39:27.965Z,100309.33
2022-12-31T14:44:31.169Z,100323.33
2022-12-31T14:46:58.011Z,100320.64
2022-12-31T14:49:29.510Z,100308.73
2022-12-31T14:51:44.265Z,100324.06
2022-12-31T14:54:28.958Z,100324.89
2022-12-31T14:56:45.080Z,100325.7
2022-12-31T14:59:25.221Z,100350.05
2022-12-31T15:01:44.885Z,100329.38
2022-12-31T15:04:14.339Z,100343.16
2022-12-31T15:06:55.584Z,100347.5
2022-12-31T15:12:03.866Z,100339.59
2022-12-31T15:14:37.172Z,100347.1
2022-12-31T15:16:53.936Z,100351.68
2022-12-31T15:19:34.083Z,100362.31
2022-12-31T15:21:56.219Z,100349.44
2022-12-31T15:24:19.228Z,100353.37
2022-12-31T15:26:49.142Z,100350.99
2022-12-31T15:29:25.127Z,100354.33
2022-12-31T15:31:46.106Z,100346.63
2022-12-31T15:34:25.119Z,100348.13
2022-12-31T15:36:52.138Z,100348.06999999999
2022-12-31T15:39:24.992Z,100350.87
2022-12-31T15:42:18.583Z,100348.94
2022-12-31T15:44:22.670Z,100349.64
2022-12-31T15:46:46.599Z,100344.84
2022-12-31T15:49:17.263Z,100334.55
2022-12-31T15:51:48.440Z,100347.52
2022-12-31T15:54:24.052Z,100336.78
2022-12-31T15:56:47.561Z,100336.95999999999
2022-12-31T15:59:16.840Z,100333.67
2022-12-31T16:01:45.717Z,100307.7
2022-12-31T16:04:17.773Z,100324.48000000001
2022-12-31T16:06:50.661Z,100324.58
2022-12-31T16:11:44.258Z,100319.41
2022-12-31T16:14:19.199Z,100320.04
2022-12-31T16:16:52.507Z,100308.32
2022-12-31T16:19:27.277Z,100314.15
2022-12-31T16:24:26.617Z,100320.31
2022-12-31T16:26:48.517Z,100311.25
2022-12-31T16:29:16.695Z,100303.73
2022-12-31T16:31:45.543Z,100303.97
2022-12-31T16:34:16.580Z,100309.78
2022-12-31T16:36:54.592Z,100309.59
2022-12-31T16:39:23.466Z,100307.97
2022-12-31T16:41:44.023Z,100315.42
2022-12-31T16:46:44.363Z,100318.24
2022-12-31T16:49:19.194Z,100310.51999999999
2022-12-31T16:51:44.498Z,100309.44
2022-12-31T16:54:18.862Z,100311.8
2022-12-31T16:56:44.643Z,100311.39
2022-12-31T16:59:23.344Z,100313.83
2022-12-31T17:01:44.396Z,100321.0
2022-12-31T17:09:20.054Z,100307.62
2022-12-31T17:11:52.291Z,100302.67
2022-12-31T17:14:15.933Z,100290.36
2022-12-31T17:17:01.406Z,100298.71
2022-12-31T17:19:31.777Z,100299.37999999999
2022-12-31T17:21:47.593Z,100299.14
2022-12-31T17:24:14.341Z,100286.0
2022-12-31T17:26:44.222Z,100286.11
2022-12-31T17:34:21.390Z,100268.16
2022-12-31T17:36:55.086Z,100266.71
2022-12-31T17:39:16.508Z,100267.92
2022-12-31T17:44:17.527Z,100288.01
2022-12-31T17:49:14.356Z,100305.97
2022-12-31T17:51:47.579Z,100300.84000000001
2022-12-31T17:54:15.270Z,100285.96
2022-12-31T17:56:44.467Z,100292.07
2022-12-31T17:59:17.275Z,100292.46
2022-12-31T18:01:44.421Z,100289.25
2022-12-31T18:04:16.359Z,100295.58
2022-12-31T18:09:15.352Z,100288.99
2022-12-31T18:11:45.162Z,100281.44
2022-12-31T18:14:15.265Z,100279.06
2022-12-31T18:19:37.938Z,100278.05
2022-12-31T18:21:44.119Z,100274.05
2022-12-31T18:24:22.868Z,100271.17
2022-12-31T18:29:16.874Z,100266.86
2022-12-31T18:31:47.198Z,100263.43000000001
2022-12-31T18:34:16.127Z,100265.36
2022-12-31T18:36:44.948Z,100259.77
2022-12-31T18:39:14.129Z,100259.33
2022-12-31T18:44:15.590Z,100244.61
2022-12-31T18:46:44.317Z,100249.93
2022-12-31T18:49:14.328Z,100260.79999999999
2022-12-31T18:51:44.197Z,100268.36
2022-12-31T18:54:14.688Z,100273.01999999999
2022-12-31T18:56:48.335Z,100255.66
2022-12-31T18:59:14.198Z,100283.26
2022-12-31T19:01:44.456Z,100257.79
2022-12-31T19:04:22.846Z,100273.69
2022-12-31T19:06:44.785Z,100255.22
2022-12-31T19:09:43.573Z,100261.05
2022-12-31T19:11:45.065Z,100268.26999999999
2022-12-31T19:14:14.928Z,100267.76999999999
2022-12-31T19:16:44.492Z,100262.47
2022-12-31T19:19:14.801Z,100263.09
2022-12-31T19:21:44.817Z,100259.34
2022-12-31T19:24:21.302Z,100252.84
2022-12-31T19:26:44.076Z,100256.14
2022-12-31T19:31:44.791Z,100257.59000000001
2022-12-31T19:34:14.347Z,100259.74
2022-12-31T19:36:44.493Z,100270.7
2022-12-31T19:39:17.027Z,100256.33
2022-12-31T19:41:44.529Z,100262.84000000001
2022-12-31T19:44:15.681Z,100259.81
2022-12-31T19:46:45.436Z,100263.22
2022-12-31T19:51:44.089Z,100252.12
2022-12-31T19:54:14.166Z,100259.66
2022-12-31T19:56:44.117Z,100265.67
2022-12-31T19:59:14.405Z,100268.95
2022-12-31T20:01:44.201Z,100267.38
2022-12-31T20:04:14.165Z,100275.87
2022-12-31T20:06:44.687Z,100265.37
2022-12-31T20:09:14.233Z,100265.28
2022-12-31T20:11:44.583Z,100278.94
2022-12-31T20:14:14.341Z,100282.19
2022-12-31T20:16:44.169Z,100292.5
2022-12-31T20:19:14.110Z,100294.12
2022-12-31T20:21:44.263Z,100285.20999999999
2022-12-31T20:24:14.428Z,100303.0
2022-12-31T20:26:44.092Z,100307.08
2022-12-31T20:29:14.360Z,100301.05
2022-12-31T20:31:44.138Z,100315.34
2022-12-31T20:34:14.241Z,100302.09
2022-12-31T20:36:44.326Z,100329.45999999999
2022-12-31T20:39:14.127Z,100311.44
2022-12-31T20:41:44.517Z,100310.91
2022-12-31T20:46:44.211Z,100324.13
2022-12-31T20:51:50.331Z,100324.95999999999
2022-12-31T20:54:14.199Z,100336.97
2022-12-31T20:59:14.139Z,100336.22
2022-12-31T21:04:14.927Z,100326.48000000001
2022-12-31T21:06:44.222Z,100322.28
2022-12-31T21:09:14.149Z,100342.68
2022-12-31T21:14:14.459Z,100339.99
2022-12-31T21:19:14.367Z,100348.39
2022-12-31T21:21:44.278Z,100351.17
2022-12-31T21:26:44.165Z,100336.99
2022-12-31T21:29:14.271Z,100341.06
2022-12-31T21:31:44.319Z,100331.02
2022-12-31T21:36:44.169Z,100314.70000000001
2022-12-31T21:39:14.684Z,100322.70999999999
2022-12-31T21:41:51.622Z,100321.96
2022-12-31T21:47:15.925Z,100323.91
2022-12-31T21:49:14.551Z,100340.94
2022-12-31T21:51:54.144Z,100340.01
2022-12-31T21:56:44.139Z,100359.53
2022-12-31T21:59:24.178Z,100338.65
2022-12-31T22:01:54.172Z,100339.4
2022-12-31T22:04:43.117Z,100335.36
2022-12-31T22:06:44.125Z,100343.47
2022-12-31T22:09:14.239Z,100332.3
2022-12-31T22:11:44.193Z,100349.93
2022-12-31T22:14:14.126Z,100364.86
2022-12-31T22:16:44.371Z,100362.15
2022-12-31T22:19:14.272Z,100350.92
2022-12-31T22:21:44.144Z,100355.35
2022-12-31T22:24:14.461Z,100345.39
2022-12-31T22:26:46.611Z,100360.55
2022-12-31T22:29:14.220Z,100356.58
2022-12-31T22:31:44.246Z,100358.72
2022-12-31T22:34:14.477Z,100351.73999999999
2022-12-31T22:36:44.412Z,100351.84000000001
2022-12-31T22:39:44.193Z,100362.65
2022-12-31T22:41:45.505Z,100360.70999999999
2022-12-31T22:44:15.677Z,100368.62999999999
2022-12-31T22:46:44.704Z,100367.92
2022-12-31T22:49:16.133Z,100354.49
2022-12-31T22:51:56.737Z,100344.89
2022-12-31T22:56:44.502Z,100359.48
2022-12-31T22:59:14.255Z,100371.86
2022-12-31T23:01:44.517Z,100357.72
2022-12-31T23:04:14.483Z,100388.17
2022-12-31T23:06:44.157Z,100367.61
2022-12-31T23:09:25.794Z,100377.42
2022-12-31T23:11:44.158Z,100387.12000000001
2022-12-31T23:14:26.372Z,100370.17
2022-12-31T23:16:54.403Z,100380.08
2022-12-31T23:19:25.037Z,100375.67
2022-12-31T23:21:54.284Z,100363.69
2022-12-31T23:24:21.378Z,100380.75
2022-12-31T23:26:44.566Z,100379.98999999999
2022-12-31T23:31:44.205Z,100393.91
2022-12-31T23:36:44.524Z,100407.78
2022-12-31T23:39:14.261Z,100402.19
2022-12-31T23:41:44.373Z,100405.7
2022-12-31T23:44:14.280Z,100403.56
2022-12-31T23:46:44.707Z,100422.6
2022-12-31T23:49:14.173Z,100435.53
2022-12-31T23:51:45.138Z,100426.78
2022-12-31T23:54:14.896Z,100417.04999999999
2022-12-31T23:56:44.186Z,100422.64
2022-12-31T23:59:14.661Z,100419.62
